createdAt,value
2022-08-20T00:06:37.542Z,18.50
2022-08-20T00:16:41.675Z,18.60
2022-08-20T00:26:52.374Z,18.50
2022-08-20T00:36:56.530Z,18.60
2022-08-20T00:47:02.449Z,18.60
2022-08-20T00:57:10.778Z,18.60
2022-08-20T01:07:16.130Z,18.70
2022-08-20T01:17:25.375Z,18.60
2022-08-20T01:27:32.326Z,18.60
2022-08-20T01:37:38.752Z,18.40
2022-08-20T01:47:43.852Z,18.30
2022-08-20T01:57:49.672Z,18.10
2022-08-20T02:07:55.757Z,18.00
2022-08-20T02:17:59.820Z,18.00
2022-08-20T02:28:11.015Z,18.00
2022-08-20T02:38:15.811Z,17.90
2022-08-20T02:48:23.458Z,17.70
2022-08-20T02:58:28.003Z,17.60
2022-08-20T03:08:33.874Z,17.70
2022-08-20T03:18:41.837Z,17.70
2022-08-20T03:28:47.246Z,17.70
2022-08-20T03:38:53.222Z,17.60
2022-08-20T03:49:00.548Z,17.70
2022-08-20T03:59:05.817Z,17.80
2022-08-20T04:09:11.765Z,17.90
2022-08-20T04:19:16.129Z,18.20
2022-08-20T04:29:21.447Z,18.40
2022-08-20T04:39:25.309Z,18.40
2022-08-20T04:49:30.413Z,18.60
2022-08-20T04:59:34.229Z,18.90
2022-08-20T05:09:44.163Z,19.20
2022-08-20T05:19:48.320Z,19.30
2022-08-20T05:29:53.639Z,19.70
2022-08-20T05:39:58.208Z,20.20
2022-08-20T05:50:05.769Z,21.20
2022-08-20T06:00:13.438Z,22.20
2022-08-20T06:10:19.973Z,23.10
2022-08-20T06:20:24.200Z,23.40
2022-08-20T06:30:29.710Z,23.80
2022-08-20T06:40:34.462Z,24.10
2022-08-20T06:50:47.762Z,24.10
2022-08-20T07:00:52.129Z,23.90
2022-08-20T07:10:57.686Z,24.00
2022-08-20T07:21:01.748Z,24.50
2022-08-20T07:31:24.625Z,25.70
2022-08-20T07:41:28.501Z,28.40
2022-08-20T07:51:33.902Z,29.40
2022-08-20T08:01:38.394Z,29.40
2022-08-20T08:11:50.186Z,34.00
2022-08-20T08:21:54.170Z,33.30
2022-08-20T08:32:02.647Z,37.00
2022-08-20T08:42:26.209Z,36.70
2022-08-20T08:52:35.909Z,39.50
2022-08-20T09:02:42.621Z,42.30
2022-08-20T09:12:47.960Z,43.10
2022-08-20T09:22:51.970Z,44.80
2022-08-20T09:33:00.272Z,46.70
2022-08-20T09:43:06.550Z,46.90
2022-08-20T09:53:12.322Z,49.30
2022-08-20T10:03:16.700Z,50.20
2022-08-20T10:13:21.851Z,52.00
2022-08-20T10:23:25.718Z,52.40
2022-08-20T10:33:30.862Z,54.10
2022-08-20T10:43:35.163Z,54.80
2022-08-20T10:53:40.469Z,55.50
2022-08-20T11:03:44.286Z,53.70
2022-08-20T11:13:49.545Z,51.40
2022-08-20T11:23:54.222Z,51.40
2022-08-20T11:33:59.384Z,51.60
2022-08-20T11:44:21.183Z,53.00
2022-08-20T11:54:29.019Z,44.20
2022-08-20T12:04:33.891Z,39.50
2022-08-20T12:14:40.666Z,35.10
2022-08-20T12:24:44.642Z,33.10
2022-08-20T12:34:51.413Z,31.30
2022-08-20T12:44:55.137Z,30.00
2022-08-20T12:55:01.144Z,28.90
2022-08-20T13:05:05.820Z,27.60
2022-08-20T13:15:12.708Z,25.80
2022-08-20T13:25:16.682Z,24.30
2022-08-20T13:35:22.140Z,23.60
2022-08-20T13:45:25.860Z,22.60
2022-08-20T13:55:31.097Z,21.90
2022-08-20T14:05:38.131Z,21.20
2022-08-20T14:15:43.076Z,20.70
2022-08-20T14:25:49.653Z,20.40
2022-08-20T14:35:55.867Z,20.30
2022-08-20T14:45:59.693Z,20.20
2022-08-20T14:56:05.457Z,20.30
2022-08-20T15:06:21.216Z,20.30
2022-08-20T15:16:28.397Z,20.50
2022-08-20T15:26:32.959Z,20.70
2022-08-20T15:36:38.113Z,20.80
2022-08-20T15:46:45.240Z,20.40
2022-08-20T15:57:02.656Z,20.20
2022-08-20T16:07:25.125Z,20.20
2022-08-20T16:17:36.045Z,20.20
2022-08-20T16:27:51.096Z,20.10
2022-08-20T16:38:08.204Z,19.90
2022-08-20T16:48:12.640Z,19.80
2022-08-20T16:58:17.934Z,19.60
2022-08-20T17:08:26.007Z,19.40
2022-08-20T17:18:36.844Z,19.10
2022-08-20T17:28:50.476Z,19.00
2022-08-20T17:38:58.190Z,18.80
2022-08-20T17:49:08.319Z,18.50
2022-08-20T17:59:33.523Z,18.40
2022-08-20T18:09:54.279Z,18.00
2022-08-20T18:20:41.557Z,17.80
2022-08-20T18:30:51.857Z,17.80
2022-08-20T18:41:08.995Z,17.70
2022-08-20T18:51:14.031Z,17.60
2022-08-20T19:01:19.445Z,17.40
2022-08-20T19:12:25.747Z,17.20
2022-08-20T19:22:31.466Z,17.00
2022-08-20T19:32:35.253Z,17.00
2022-08-20T19:42:44.534Z,16.90
2022-08-20T19:52:58.498Z,16.70
2022-08-20T20:03:11.926Z,16.50
2022-08-20T20:13:21.327Z,16.50
2022-08-20T20:23:38.597Z,16.60
2022-08-20T20:33:56.190Z,16.50
2022-08-20T20:44:04.872Z,16.50
2022-08-20T20:54:28.298Z,16.80
2022-08-20T21:04:34.161Z,16.90
2022-08-20T21:14:39.211Z,17.00
2022-08-20T21:24:45.803Z,17.10
2022-08-20T21:34:50.165Z,17.20
2022-08-20T21:44:55.487Z,17.20
2022-08-20T21:54:59.252Z,17.20
2022-08-20T22:05:05.366Z,17.30
2022-08-20T22:15:10.189Z,17.20
2022-08-20T22:25:16.559Z,17.10
2022-08-20T22:35:20.940Z,17.00
2022-08-20T22:45:26.249Z,16.90
2022-08-20T22:55:30.021Z,17.00
2022-08-20T23:05:38.035Z,16.90
2022-08-20T23:15:45.341Z,16.90
2022-08-20T23:25:51.210Z,16.90
2022-08-20T23:35:55.082Z,17.00
2022-08-20T23:46:04.746Z,17.00
2022-08-20T23:56:08.915Z,17.10
